sensor_id;sensor_type;location;lat;lon;timestamp;pressure;altitude;pressure_sealevel;temperature;humidity
6208;BME280;3137;51.550;7.060;2023-06-26T00:00:25;75546.44;;;-145.94;51.71
6208;BME280;3137;51.550;7.060;2023-06-26T00:02:52;75546.44;;;-145.94;51.46
6208;BME280;3137;51.550;7.060;2023-06-26T00:05:18;75542.38;;;-145.94;51.54
6208;BME280;3137;51.550;7.060;2023-06-26T00:07:45;75538.28;;;-145.94;52.02
6208;BME280;3137;51.550;7.060;2023-06-26T00:10:11;75548.50;;;-145.94;51.90
6208;BME280;3137;51.550;7.060;2023-06-26T00:12:38;75548.50;;;-145.94;52.25
6208;BME280;3137;51.550;7.060;2023-06-26T00:15:04;75550.53;;;-145.94;52.37
6208;BME280;3137;51.550;7.060;2023-06-26T00:17:31;75552.56;;;-145.94;52.64
6208;BME280;3137;51.550;7.060;2023-06-26T00:20:03;75554.59;;;-145.94;52.99
6208;BME280;3137;51.550;7.060;2023-06-26T00:22:31;75556.63;;;-145.94;52.80
6208;BME280;3137;51.550;7.060;2023-06-26T00:24:58;75558.69;;;-145.94;52.92
6208;BME280;3137;51.550;7.060;2023-06-26T00:27:24;75554.59;;;-145.94;52.90
6208;BME280;3137;51.550;7.060;2023-06-26T00:29:51;75562.75;;;-145.94;52.67
6208;BME280;3137;51.550;7.060;2023-06-26T00:32:19;75558.69;;;-145.94;52.59
6208;BME280;3137;51.550;7.060;2023-06-26T00:34:45;75562.75;;;-145.94;52.42
6208;BME280;3137;51.550;7.060;2023-06-26T00:37:14;75562.75;;;-145.94;52.24
6208;BME280;3137;51.550;7.060;2023-06-26T00:39:40;75564.78;;;-145.94;52.21
6208;BME280;3137;51.550;7.060;2023-06-26T00:42:07;75568.88;;;-145.94;52.16
6208;BME280;3137;51.550;7.060;2023-06-26T00:44:35;75570.91;;;-145.94;52.16
6208;BME280;3137;51.550;7.060;2023-06-26T00:47:01;75568.88;;;-145.94;51.89
6208;BME280;3137;51.550;7.060;2023-06-26T00:49:28;75577.03;;;-145.94;51.97
6208;BME280;3137;51.550;7.060;2023-06-26T00:51:56;75572.94;;;-145.94;51.99
6208;BME280;3137;51.550;7.060;2023-06-26T00:54:22;75585.19;;;-145.94;52.33
6208;BME280;3137;51.550;7.060;2023-06-26T00:56:49;75583.16;;;-145.94;52.79
6208;BME280;3137;51.550;7.060;2023-06-26T00:59:16;75587.22;;;-145.94;53.09
6208;BME280;3137;51.550;7.060;2023-06-26T01:01:42;75593.34;;;-145.94;53.03
6208;BME280;3137;51.550;7.060;2023-06-26T01:04:09;75597.41;;;-145.94;52.67
6208;BME280;3137;51.550;7.060;2023-06-26T01:06:46;75595.38;;;-145.94;52.40
6208;BME280;3137;51.550;7.060;2023-06-26T01:09:18;75593.34;;;-145.94;52.30
6208;BME280;3137;51.550;7.060;2023-06-26T01:11:45;75589.25;;;-145.94;51.97
6208;BME280;3137;51.550;7.060;2023-06-26T01:14:14;75597.41;;;-145.94;52.53
6208;BME280;3137;51.550;7.060;2023-06-26T01:16:41;75599.44;;;-145.94;53.17
6208;BME280;3137;51.550;7.060;2023-06-26T01:19:19;75607.59;;;-145.94;53.05
6208;BME280;3137;51.550;7.060;2023-06-26T01:21:58;75599.44;;;-145.94;52.68
6208;BME280;3137;51.550;7.060;2023-06-26T01:24:31;75597.41;;;-145.94;52.37
6208;BME280;3137;51.550;7.060;2023-06-26T01:27:00;75589.25;;;-145.94;52.40
6208;BME280;3137;51.550;7.060;2023-06-26T01:29:30;75587.22;;;-145.94;52.47
6208;BME280;3137;51.550;7.060;2023-06-26T01:31:59;75591.28;;;-145.94;52.80
6208;BME280;3137;51.550;7.060;2023-06-26T01:34:27;75587.22;;;-145.94;52.74
6208;BME280;3137;51.550;7.060;2023-06-26T01:36:54;75587.22;;;-145.94;52.44
6208;BME280;3137;51.550;7.060;2023-06-26T01:39:20;75585.19;;;-145.94;52.34
6208;BME280;3137;51.550;7.060;2023-06-26T01:41:47;75587.22;;;-145.94;52.01
6208;BME280;3137;51.550;7.060;2023-06-26T01:44:27;75589.25;;;-145.94;52.01
6208;BME280;3137;51.550;7.060;2023-06-26T01:47:01;75595.38;;;-145.94;52.90
6208;BME280;3137;51.550;7.060;2023-06-26T01:49:47;75603.53;;;-145.94;53.42
6208;BME280;3137;51.550;7.060;2023-06-26T01:52:26;75609.66;;;-145.94;54.10
6208;BME280;3137;51.550;7.060;2023-06-26T01:57:31;75625.94;;;-145.94;54.70
6208;BME280;3137;51.550;7.060;2023-06-26T01:59:59;75636.16;;;-145.94;54.75
6208;BME280;3137;51.550;7.060;2023-06-26T02:02:28;75638.19;;;-145.94;54.38
6208;BME280;3137;51.550;7.060;2023-06-26T02:04:55;75636.16;;;-145.94;54.12
6208;BME280;3137;51.550;7.060;2023-06-26T02:07:22;75640.22;;;-145.94;54.66
6208;BME280;3137;51.550;7.060;2023-06-26T02:09:48;75652.44;;;-145.94;55.08
6208;BME280;3137;51.550;7.060;2023-06-26T02:12:15;75664.69;;;-145.94;55.27
6208;BME280;3137;51.550;7.060;2023-06-26T02:14:41;75664.69;;;-145.94;55.53
6208;BME280;3137;51.550;7.060;2023-06-26T02:17:08;75674.88;;;-145.94;55.36
6208;BME280;3137;51.550;7.060;2023-06-26T02:19:35;75685.06;;;-145.94;55.69
6208;BME280;3137;51.550;7.060;2023-06-26T02:22:01;75689.16;;;-145.94;56.16
6208;BME280;3137;51.550;7.060;2023-06-26T02:24:27;75693.22;;;-145.94;56.24
6208;BME280;3137;51.550;7.060;2023-06-26T02:26:57;75703.41;;;-145.94;56.08
6208;BME280;3137;51.550;7.060;2023-06-26T02:29:23;75709.53;;;-145.94;56.68
6208;BME280;3137;51.550;7.060;2023-06-26T02:31:50;75709.53;;;-145.94;56.93
6208;BME280;3137;51.550;7.060;2023-06-26T02:34:16;75713.63;;;-145.94;57.12
6208;BME280;3137;51.550;7.060;2023-06-26T02:36:43;75736.03;;;-145.94;57.00
6208;BME280;3137;51.550;7.060;2023-06-26T02:39:09;75736.03;;;-145.94;56.82
6208;BME280;3137;51.550;7.060;2023-06-26T02:41:36;75738.06;;;-145.94;56.73
6208;BME280;3137;51.550;7.060;2023-06-26T02:44:03;75742.16;;;-145.94;56.59
6208;BME280;3137;51.550;7.060;2023-06-26T02:46:30;75746.22;;;-145.94;56.52
6208;BME280;3137;51.550;7.060;2023-06-26T02:48:57;75740.13;;;-145.94;56.42
6208;BME280;3137;51.550;7.060;2023-06-26T02:51:24;75748.28;;;-145.94;56.54
6208;BME280;3137;51.550;7.060;2023-06-26T02:53:52;75760.50;;;-145.94;57.19
6208;BME280;3137;51.550;7.060;2023-06-26T02:56:19;75780.88;;;-145.94;57.47
6208;BME280;3137;51.550;7.060;2023-06-26T02:58:45;75774.78;;;-145.94;57.26
6208;BME280;3137;51.550;7.060;2023-06-26T03:01:12;75780.88;;;-145.94;56.66
6208;BME280;3137;51.550;7.060;2023-06-26T03:03:41;75780.88;;;-145.94;56.76
6208;BME280;3137;51.550;7.060;2023-06-26T03:06:13;75776.81;;;-145.94;57.06
6208;BME280;3137;51.550;7.060;2023-06-26T03:08:40;75766.63;;;-145.94;56.52
6208;BME280;3137;51.550;7.060;2023-06-26T03:11:08;75754.38;;;-145.94;55.09
6208;BME280;3137;51.550;7.060;2023-06-26T03:13:36;75707.50;;;-145.94;51.89
6208;BME280;3137;51.550;7.060;2023-06-26T03:16:04;75662.66;;;-145.94;50.61
6208;BME280;3137;51.550;7.060;2023-06-26T03:18:30;75599.44;;;-145.94;48.50
6208;BME280;3137;51.550;7.060;2023-06-26T03:20:57;75562.75;;;-145.94;48.23
6208;BME280;3137;51.550;7.060;2023-06-26T03:23:24;75552.56;;;-145.94;47.48
6208;BME280;3137;51.550;7.060;2023-06-26T03:25:51;75526.06;;;-145.94;46.81
6208;BME280;3137;51.550;7.060;2023-06-26T03:28:37;75522.00;;;-145.94;46.61
6208;BME280;3137;51.550;7.060;2023-06-26T03:31:03;75509.75;;;-145.94;46.76
6208;BME280;3137;51.550;7.060;2023-06-26T03:33:30;75511.78;;;-145.94;46.95
6208;BME280;3137;51.550;7.060;2023-06-26T03:35:58;75507.72;;;-145.94;47.06
6208;BME280;3137;51.550;7.060;2023-06-26T03:38:25;75507.72;;;-145.94;46.78
6208;BME280;3137;51.550;7.060;2023-06-26T03:40:54;75499.56;;;-145.94;46.91
6208;BME280;3137;51.550;7.060;2023-06-26T03:43:21;75495.50;;;-145.94;47.08
6208;BME280;3137;51.550;7.060;2023-06-26T03:46:00;75479.19;;;-145.94;47.30
6208;BME280;3137;51.550;7.060;2023-06-26T03:48:26;75477.13;;;-145.94;47.24
6208;BME280;3137;51.550;7.060;2023-06-26T03:50:54;75475.09;;;-145.94;47.64
6208;BME280;3137;51.550;7.060;2023-06-26T03:53:21;75483.25;;;-145.94;47.89
6208;BME280;3137;51.550;7.060;2023-06-26T03:55:47;75487.34;;;-145.94;48.02
6208;BME280;3137;51.550;7.060;2023-06-26T03:58:14;75485.28;;;-145.94;48.20
6208;BME280;3137;51.550;7.060;2023-06-26T04:00:40;75489.38;;;-145.94;48.27
6208;BME280;3137;51.550;7.060;2023-06-26T04:03:07;75503.63;;;-145.94;48.87
6208;BME280;3137;51.550;7.060;2023-06-26T04:05:34;75517.91;;;-145.94;48.88
6208;BME280;3137;51.550;7.060;2023-06-26T04:08:00;75524.03;;;-145.94;49.73
6208;BME280;3137;51.550;7.060;2023-06-26T04:10:27;75538.28;;;-145.94;49.73
6208;BME280;3137;51.550;7.060;2023-06-26T04:12:54;75550.53;;;-145.94;50.01
6208;BME280;3137;51.550;7.060;2023-06-26T04:15:20;75552.56;;;-145.94;49.89
6208;BME280;3137;51.550;7.060;2023-06-26T04:17:47;75562.75;;;-145.94;50.54
6208;BME280;3137;51.550;7.060;2023-06-26T04:20:13;75575.00;;;-145.94;50.54
6208;BME280;3137;51.550;7.060;2023-06-26T04:22:40;75587.22;;;-145.94;50.52
6208;BME280;3137;51.550;7.060;2023-06-26T04:25:07;75595.38;;;-145.94;50.76
6208;BME280;3137;51.550;7.060;2023-06-26T04:27:33;75603.53;;;-145.94;51.13
6208;BME280;3137;51.550;7.060;2023-06-26T04:30:03;75603.53;;;-145.94;51.06
6208;BME280;3137;51.550;7.060;2023-06-26T04:32:29;75607.59;;;-145.94;51.44
6208;BME280;3137;51.550;7.060;2023-06-26T04:34:56;75615.75;;;-145.94;50.83
6208;BME280;3137;51.550;7.060;2023-06-26T04:37:22;75613.72;;;-145.94;51.25
6208;BME280;3137;51.550;7.060;2023-06-26T04:39:50;75619.84;;;-145.94;51.17
6208;BME280;3137;51.550;7.060;2023-06-26T04:42:17;75617.81;;;-145.94;50.76
6208;BME280;3137;51.550;7.060;2023-06-26T04:44:45;75615.75;;;-145.94;51.11
6208;BME280;3137;51.550;7.060;2023-06-26T04:47:11;75625.94;;;-145.94;51.28
6208;BME280;3137;51.550;7.060;2023-06-26T04:49:37;75623.91;;;-145.94;51.23
6208;BME280;3137;51.550;7.060;2023-06-26T04:52:05;75636.16;;;-145.94;51.07
6208;BME280;3137;51.550;7.060;2023-06-26T04:54:31;75640.22;;;-145.94;51.55
6208;BME280;3137;51.550;7.060;2023-06-26T04:56:57;75642.25;;;-145.94;51.11
6208;BME280;3137;51.550;7.060;2023-06-26T04:59:26;75650.41;;;-145.94;51.38
6208;BME280;3137;51.550;7.060;2023-06-26T05:01:52;75640.22;;;-145.94;51.28
6208;BME280;3137;51.550;7.060;2023-06-26T05:04:18;75644.31;;;-145.94;52.08
6208;BME280;3137;51.550;7.060;2023-06-26T05:06:45;75644.31;;;-145.94;52.20
6208;BME280;3137;51.550;7.060;2023-06-26T05:09:11;75634.09;;;-145.94;52.11
6208;BME280;3137;51.550;7.060;2023-06-26T05:11:38;75632.06;;;-145.94;52.30
6208;BME280;3137;51.550;7.060;2023-06-26T05:14:05;75638.19;;;-145.94;52.66
6208;BME280;3137;51.550;7.060;2023-06-26T05:16:33;75636.16;;;-145.94;51.73
6208;BME280;3137;51.550;7.060;2023-06-26T05:19:00;75642.25;;;-145.94;51.49
6208;BME280;3137;51.550;7.060;2023-06-26T05:21:28;75636.16;;;-145.94;51.25
6208;BME280;3137;51.550;7.060;2023-06-26T05:23:56;75642.25;;;-145.94;50.96
6208;BME280;3137;51.550;7.060;2023-06-26T05:26:24;75630.03;;;-145.94;50.79
6208;BME280;3137;51.550;7.060;2023-06-26T05:28:51;75636.16;;;-145.94;50.86
6208;BME280;3137;51.550;7.060;2023-06-26T05:31:17;75644.31;;;-145.94;51.47
6208;BME280;3137;51.550;7.060;2023-06-26T05:33:45;75648.38;;;-145.94;51.95
6208;BME280;3137;51.550;7.060;2023-06-26T05:36:13;75646.34;;;-145.94;51.63
6208;BME280;3137;51.550;7.060;2023-06-26T05:38:40;75648.38;;;-145.94;50.71
6208;BME280;3137;51.550;7.060;2023-06-26T05:41:07;75654.50;;;-145.94;51.06
6208;BME280;3137;51.550;7.060;2023-06-26T05:43:33;75664.69;;;-145.94;51.33
6208;BME280;3137;51.550;7.060;2023-06-26T05:46:00;75676.91;;;-145.94;51.40
6208;BME280;3137;51.550;7.060;2023-06-26T05:48:27;75683.03;;;-145.94;51.72
6208;BME280;3137;51.550;7.060;2023-06-26T05:50:53;75685.06;;;-145.94;51.43
6208;BME280;3137;51.550;7.060;2023-06-26T05:53:20;75685.06;;;-145.94;51.57
6208;BME280;3137;51.550;7.060;2023-06-26T05:55:47;75685.06;;;-145.94;51.75
6208;BME280;3137;51.550;7.060;2023-06-26T05:58:14;75666.72;;;-145.94;51.87
6208;BME280;3137;51.550;7.060;2023-06-26T06:00:41;75683.03;;;-145.94;52.09
6208;BME280;3137;51.550;7.060;2023-06-26T06:03:10;75689.16;;;-145.94;51.60
6208;BME280;3137;51.550;7.060;2023-06-26T06:05:37;75705.47;;;-145.94;52.30
6208;BME280;3137;51.550;7.060;2023-06-26T06:08:04;75705.47;;;-145.94;52.47
6208;BME280;3137;51.550;7.060;2023-06-26T06:10:30;75695.25;;;-145.94;52.18
6208;BME280;3137;51.550;7.060;2023-06-26T06:12:57;75691.19;;;-145.94;52.24
6208;BME280;3137;51.550;7.060;2023-06-26T06:15:23;75685.06;;;-145.94;52.17
6208;BME280;3137;51.550;7.060;2023-06-26T06:17:50;75687.13;;;-145.94;52.17
6208;BME280;3137;51.550;7.060;2023-06-26T06:20:17;75699.34;;;-145.94;52.17
6208;BME280;3137;51.550;7.060;2023-06-26T06:22:45;75711.56;;;-145.94;52.49
6208;BME280;3137;51.550;7.060;2023-06-26T06:25:12;75711.56;;;-145.94;52.81
6208;BME280;3137;51.550;7.060;2023-06-26T06:27:38;75721.75;;;-145.94;52.93
6208;BME280;3137;51.550;7.060;2023-06-26T06:30:05;75723.81;;;-145.94;52.83
6208;BME280;3137;51.550;7.060;2023-06-26T06:32:34;75717.69;;;-145.94;53.82
6208;BME280;3137;51.550;7.060;2023-06-26T06:35:00;75717.69;;;-145.94;52.76
6208;BME280;3137;51.550;7.060;2023-06-26T06:37:33;75725.84;;;-145.94;53.18
6208;BME280;3137;51.550;7.060;2023-06-26T06:39:59;75752.34;;;-145.94;53.01
6208;BME280;3137;51.550;7.060;2023-06-26T06:42:26;75778.84;;;-145.94;53.96
6208;BME280;3137;51.550;7.060;2023-06-26T06:44:52;75795.16;;;-145.94;54.61
6208;BME280;3137;51.550;7.060;2023-06-26T06:47:19;75811.47;;;-145.94;54.43
6208;BME280;3137;51.550;7.060;2023-06-26T06:49:45;75815.53;;;-145.94;54.75
6208;BME280;3137;51.550;7.060;2023-06-26T06:52:11;75813.50;;;-145.94;54.43
6208;BME280;3137;51.550;7.060;2023-06-26T06:55:04;75799.22;;;-145.94;54.82
6208;BME280;3137;51.550;7.060;2023-06-26T06:57:35;75782.94;;;-145.94;54.14
6208;BME280;3137;51.550;7.060;2023-06-26T07:00:09;75774.78;;;-145.94;54.32
6208;BME280;3137;51.550;7.060;2023-06-26T07:02:41;75766.63;;;-145.94;54.10
6208;BME280;3137;51.550;7.060;2023-06-26T07:05:08;75782.94;;;-145.94;54.61
6208;BME280;3137;51.550;7.060;2023-06-26T07:07:36;75791.09;;;-145.94;53.96
6208;BME280;3137;51.550;7.060;2023-06-26T07:10:06;75789.03;;;-145.94;54.71
6208;BME280;3137;51.550;7.060;2023-06-26T07:12:32;75795.16;;;-145.94;54.53
6208;BME280;3137;51.550;7.060;2023-06-26T07:15:01;75807.38;;;-145.94;55.00
6208;BME280;3137;51.550;7.060;2023-06-26T07:17:28;75815.53;;;-145.94;54.94
6208;BME280;3137;51.550;7.060;2023-06-26T07:19:55;75815.53;;;-145.94;54.92
6208;BME280;3137;51.550;7.060;2023-06-26T07:22:22;75813.50;;;-145.94;55.47
6208;BME280;3137;51.550;7.060;2023-06-26T07:24:49;75795.16;;;-145.94;55.89
6208;BME280;3137;51.550;7.060;2023-06-26T07:27:16;75776.81;;;-145.94;54.56
6208;BME280;3137;51.550;7.060;2023-06-26T07:29:42;75756.41;;;-145.94;54.43
6208;BME280;3137;51.550;7.060;2023-06-26T07:32:09;75750.31;;;-145.94;54.30
6208;BME280;3137;51.550;7.060;2023-06-26T07:34:36;75744.19;;;-145.94;54.37
6208;BME280;3137;51.550;7.060;2023-06-26T07:37:03;75748.28;;;-145.94;54.60
6208;BME280;3137;51.550;7.060;2023-06-26T07:39:30;75752.34;;;-145.94;54.40
6208;BME280;3137;51.550;7.060;2023-06-26T07:41:56;75754.38;;;-145.94;55.00
6208;BME280;3137;51.550;7.060;2023-06-26T07:44:24;75742.16;;;-145.94;55.33
6208;BME280;3137;51.550;7.060;2023-06-26T07:46:51;75734.00;;;-145.94;54.35
6208;BME280;3137;51.550;7.060;2023-06-26T07:49:18;75750.31;;;-145.94;55.26
6208;BME280;3137;51.550;7.060;2023-06-26T07:51:44;75756.41;;;-145.94;54.70
6208;BME280;3137;51.550;7.060;2023-06-26T07:54:11;75758.47;;;-145.94;54.99
6208;BME280;3137;51.550;7.060;2023-06-26T07:59:25;75738.06;;;-145.94;53.90
6208;BME280;3137;51.550;7.060;2023-06-26T08:01:53;75734.00;;;-145.94;53.47
6208;BME280;3137;51.550;7.060;2023-06-26T08:04:20;75738.06;;;-145.94;53.63
6208;BME280;3137;51.550;7.060;2023-06-26T08:06:48;75729.91;;;-145.94;53.67
6208;BME280;3137;51.550;7.060;2023-06-26T08:09:16;75744.19;;;-145.94;53.75
6208;BME280;3137;51.550;7.060;2023-06-26T08:11:43;75723.81;;;-145.94;54.78
6208;BME280;3137;51.550;7.060;2023-06-26T08:14:09;75703.41;;;-145.94;53.81
6208;BME280;3137;51.550;7.060;2023-06-26T08:16:36;75705.47;;;-145.94;52.53
6208;BME280;3137;51.550;7.060;2023-06-26T08:19:02;75693.22;;;-145.94;53.03
6208;BME280;3137;51.550;7.060;2023-06-26T08:21:29;75697.31;;;-145.94;53.31
6208;BME280;3137;51.550;7.060;2023-06-26T08:23:55;75681.00;;;-145.94;53.50
6208;BME280;3137;51.550;7.060;2023-06-26T08:26:21;75668.75;;;-145.94;52.10
6208;BME280;3137;51.550;7.060;2023-06-26T08:28:48;75693.22;;;-145.94;52.05
6208;BME280;3137;51.550;7.060;2023-06-26T08:31:16;75687.13;;;-145.94;52.50
6208;BME280;3137;51.550;7.060;2023-06-26T08:33:42;75685.06;;;-145.94;52.79
6208;BME280;3137;51.550;7.060;2023-06-26T08:36:09;75695.25;;;-145.94;51.97
6208;BME280;3137;51.550;7.060;2023-06-26T08:38:35;75701.38;;;-145.94;51.86
6208;BME280;3137;51.550;7.060;2023-06-26T08:41:02;75687.13;;;-145.94;51.63
6208;BME280;3137;51.550;7.060;2023-06-26T08:43:28;75707.50;;;-145.94;52.37
6208;BME280;3137;51.550;7.060;2023-06-26T08:45:55;75711.56;;;-145.94;52.35
6208;BME280;3137;51.550;7.060;2023-06-26T08:48:21;75687.13;;;-145.94;52.36
6208;BME280;3137;51.550;7.060;2023-06-26T08:50:48;75725.84;;;-145.94;52.18
6208;BME280;3137;51.550;7.060;2023-06-26T08:53:40;75725.84;;;-145.94;52.66
6208;BME280;3137;51.550;7.060;2023-06-26T08:56:09;75707.50;;;-145.94;52.20
6208;BME280;3137;51.550;7.060;2023-06-26T08:58:38;75713.63;;;-145.94;52.56
6208;BME280;3137;51.550;7.060;2023-06-26T09:01:08;75723.81;;;-145.94;52.55
6208;BME280;3137;51.550;7.060;2023-06-26T09:03:35;75717.69;;;-145.94;52.21
6208;BME280;3137;51.550;7.060;2023-06-26T09:06:02;75697.31;;;-145.94;52.08
6208;BME280;3137;51.550;7.060;2023-06-26T09:08:28;75709.53;;;-145.94;51.62
6208;BME280;3137;51.550;7.060;2023-06-26T09:10:55;75713.63;;;-145.94;51.93
6208;BME280;3137;51.550;7.060;2023-06-26T09:13:22;75707.50;;;-145.94;51.96
6208;BME280;3137;51.550;7.060;2023-06-26T09:15:55;75717.69;;;-145.94;50.56
6208;BME280;3137;51.550;7.060;2023-06-26T09:18:23;75723.81;;;-145.94;50.47
6208;BME280;3137;51.550;7.060;2023-06-26T09:20:49;75687.13;;;-145.94;51.03
6208;BME280;3137;51.550;7.060;2023-06-26T09:23:16;75705.47;;;-145.94;50.37
6208;BME280;3137;51.550;7.060;2023-06-26T09:25:43;75713.63;;;-145.94;51.17
6208;BME280;3137;51.550;7.060;2023-06-26T09:28:11;75719.72;;;-145.94;51.41
6208;BME280;3137;51.550;7.060;2023-06-26T09:30:38;75723.81;;;-145.94;50.74
6208;BME280;3137;51.550;7.060;2023-06-26T09:33:14;75725.84;;;-145.94;50.60
6208;BME280;3137;51.550;7.060;2023-06-26T09:35:42;75709.53;;;-145.94;51.11
6208;BME280;3137;51.550;7.060;2023-06-26T09:38:09;75678.97;;;-145.94;50.72
6208;BME280;3137;51.550;7.060;2023-06-26T09:40:35;75676.91;;;-145.94;50.23
6208;BME280;3137;51.550;7.060;2023-06-26T09:43:09;75717.69;;;-145.94;47.74
6208;BME280;3137;51.550;7.060;2023-06-26T09:45:36;75742.16;;;-145.94;48.57
6208;BME280;3137;51.550;7.060;2023-06-26T09:48:03;75744.19;;;-145.94;48.33
6208;BME280;3137;51.550;7.060;2023-06-26T09:50:34;75705.47;;;-145.94;49.22
6208;BME280;3137;51.550;7.060;2023-06-26T09:53:10;75676.91;;;-145.94;49.47
6208;BME280;3137;51.550;7.060;2023-06-26T09:55:37;75656.53;;;-145.94;48.51
6208;BME280;3137;51.550;7.060;2023-06-26T09:58:04;75632.06;;;-145.94;47.46
6208;BME280;3137;51.550;7.060;2023-06-26T10:00:31;75668.75;;;-145.94;46.16
6208;BME280;3137;51.550;7.060;2023-06-26T10:03:00;75693.22;;;-145.94;47.30
6208;BME280;3137;51.550;7.060;2023-06-26T10:05:27;75683.03;;;-145.94;47.79
6208;BME280;3137;51.550;7.060;2023-06-26T10:07:54;75660.59;;;-145.94;48.19
6208;BME280;3137;51.550;7.060;2023-06-26T10:10:23;75672.84;;;-145.94;46.90
6208;BME280;3137;51.550;7.060;2023-06-26T10:12:54;75705.47;;;-145.94;45.62
6208;BME280;3137;51.550;7.060;2023-06-26T10:15:25;75715.66;;;-145.94;46.65
6208;BME280;3137;51.550;7.060;2023-06-26T10:17:55;75699.34;;;-145.94;47.06
6208;BME280;3137;51.550;7.060;2023-06-26T10:20:22;75674.88;;;-145.94;45.90
6208;BME280;3137;51.550;7.060;2023-06-26T10:22:49;75660.59;;;-145.94;44.40
6208;BME280;3137;51.550;7.060;2023-06-26T10:25:19;75632.06;;;-145.94;44.13
6208;BME280;3137;51.550;7.060;2023-06-26T10:27:55;75621.88;;;-145.94;44.42
6208;BME280;3137;51.550;7.060;2023-06-26T10:30:35;75611.69;;;-145.94;43.89
6208;BME280;3137;51.550;7.060;2023-06-26T10:33:03;75599.44;;;-145.94;43.84
6208;BME280;3137;51.550;7.060;2023-06-26T10:35:30;75603.53;;;-145.94;43.03
6208;BME280;3137;51.550;7.060;2023-06-26T10:38:01;75619.84;;;-145.94;43.79
6208;BME280;3137;51.550;7.060;2023-06-26T10:40:46;75597.41;;;-145.94;43.55
6208;BME280;3137;51.550;7.060;2023-06-26T10:43:15;75603.53;;;-145.94;42.77
6208;BME280;3137;51.550;7.060;2023-06-26T10:45:46;75607.59;;;-145.94;43.42
6208;BME280;3137;51.550;7.060;2023-06-26T10:48:14;75638.19;;;-145.94;43.34
6208;BME280;3137;51.550;7.060;2023-06-26T10:50:41;75652.44;;;-145.94;43.90
6208;BME280;3137;51.550;7.060;2023-06-26T10:53:14;75662.66;;;-145.94;44.54
6208;BME280;3137;51.550;7.060;2023-06-26T11:01:25;75778.84;;;-145.94;45.81
6208;BME280;3137;51.550;7.060;2023-06-26T11:06:25;75795.16;;;-145.94;45.17
6208;BME280;3137;51.550;7.060;2023-06-26T11:09:06;75801.28;;;-145.94;46.27
6208;BME280;3137;51.550;7.060;2023-06-26T11:14:19;75787.00;;;-145.94;45.52
6208;BME280;3137;51.550;7.060;2023-06-26T11:16:46;75772.72;;;-145.94;46.28
6208;BME280;3137;51.550;7.060;2023-06-26T11:19:13;75760.50;;;-145.94;45.34
6208;BME280;3137;51.550;7.060;2023-06-26T11:21:40;75742.16;;;-145.94;45.63
6208;BME280;3137;51.550;7.060;2023-06-26T11:24:07;75717.69;;;-145.94;45.21
6208;BME280;3137;51.550;7.060;2023-06-26T11:26:41;75703.41;;;-145.94;42.28
6208;BME280;3137;51.550;7.060;2023-06-26T11:29:08;75693.22;;;-145.94;42.86
6208;BME280;3137;51.550;7.060;2023-06-26T11:31:36;75695.25;;;-145.94;41.99
6208;BME280;3137;51.550;7.060;2023-06-26T11:34:08;75711.56;;;-145.94;41.47
6208;BME280;3137;51.550;7.060;2023-06-26T11:36:37;75715.66;;;-145.94;41.74
6208;BME280;3137;51.550;7.060;2023-06-26T11:39:07;75719.72;;;-145.94;41.70
6208;BME280;3137;51.550;7.060;2023-06-26T11:41:38;75734.00;;;-145.94;41.38
6208;BME280;3137;51.550;7.060;2023-06-26T11:44:06;75711.56;;;-145.94;41.94
6208;BME280;3137;51.550;7.060;2023-06-26T11:46:37;75676.91;;;-145.94;41.65
6208;BME280;3137;51.550;7.060;2023-06-26T11:49:07;75656.53;;;-145.94;42.17
6208;BME280;3137;51.550;7.060;2023-06-26T11:51:34;75658.56;;;-145.94;40.23
6208;BME280;3137;51.550;7.060;2023-06-26T11:54:04;75676.91;;;-145.94;40.18
6208;BME280;3137;51.550;7.060;2023-06-26T11:56:31;75697.31;;;-145.94;41.47
6208;BME280;3137;51.550;7.060;2023-06-26T11:59:11;75676.91;;;-145.94;40.46
6208;BME280;3137;51.550;7.060;2023-06-26T12:01:41;75656.53;;;-145.94;41.29
6208;BME280;3137;51.550;7.060;2023-06-26T12:04:12;75670.81;;;-145.94;40.81
6208;BME280;3137;51.550;7.060;2023-06-26T12:06:46;75701.38;;;-145.94;38.20
6208;BME280;3137;51.550;7.060;2023-06-26T12:09:18;75723.81;;;-145.94;38.07
6208;BME280;3137;51.550;7.060;2023-06-26T12:11:47;75736.03;;;-145.94;37.43
6208;BME280;3137;51.550;7.060;2023-06-26T12:14:16;75744.19;;;-145.94;37.89
6208;BME280;3137;51.550;7.060;2023-06-26T12:16:43;75727.88;;;-145.94;40.02
6208;BME280;3137;51.550;7.060;2023-06-26T12:19:10;75685.06;;;-145.94;38.26
6208;BME280;3137;51.550;7.060;2023-06-26T12:24:04;75717.69;;;-145.94;37.48
6208;BME280;3137;51.550;7.060;2023-06-26T12:26:31;75707.50;;;-145.94;37.32
6208;BME280;3137;51.550;7.060;2023-06-26T12:31:31;75681.00;;;-145.94;35.01
6208;BME280;3137;51.550;7.060;2023-06-26T12:33:57;75676.91;;;-145.94;34.46
6208;BME280;3137;51.550;7.060;2023-06-26T12:36:24;75670.81;;;-145.94;35.44
6208;BME280;3137;51.550;7.060;2023-06-26T12:38:53;75672.84;;;-145.94;34.40
6208;BME280;3137;51.550;7.060;2023-06-26T12:41:20;75660.59;;;-145.94;35.52
6208;BME280;3137;51.550;7.060;2023-06-26T12:43:55;75666.72;;;-145.94;36.22
6208;BME280;3137;51.550;7.060;2023-06-26T12:46:33;75664.69;;;-145.94;36.23
6208;BME280;3137;51.550;7.060;2023-06-26T12:49:01;75693.22;;;-145.94;37.34
6208;BME280;3137;51.550;7.060;2023-06-26T12:51:30;75695.25;;;-145.94;36.40
6208;BME280;3137;51.550;7.060;2023-06-26T12:53:56;75681.00;;;-145.94;37.81
6208;BME280;3137;51.550;7.060;2023-06-26T12:56:23;75666.72;;;-145.94;36.38
6208;BME280;3137;51.550;7.060;2023-06-26T12:58:49;75654.50;;;-145.94;35.99
6208;BME280;3137;51.550;7.060;2023-06-26T13:01:16;75648.38;;;-145.94;36.00
6208;BME280;3137;51.550;7.060;2023-06-26T13:03:43;75662.66;;;-145.94;35.09
6208;BME280;3137;51.550;7.060;2023-06-26T13:06:12;75697.31;;;-145.94;35.47
6208;BME280;3137;51.550;7.060;2023-06-26T13:08:40;75740.13;;;-145.94;35.32
6208;BME280;3137;51.550;7.060;2023-06-26T13:11:07;75742.16;;;-145.94;36.32
6208;BME280;3137;51.550;7.060;2023-06-26T13:13:33;75715.66;;;-145.94;35.84
6208;BME280;3137;51.550;7.060;2023-06-26T13:16:00;75715.66;;;-145.94;34.09
6208;BME280;3137;51.550;7.060;2023-06-26T13:18:26;75721.75;;;-145.94;34.48
6208;BME280;3137;51.550;7.060;2023-06-26T13:20:53;75725.84;;;-145.94;36.31
6208;BME280;3137;51.550;7.060;2023-06-26T13:23:19;75719.72;;;-145.94;35.14
6208;BME280;3137;51.550;7.060;2023-06-26T13:25:45;75699.34;;;-145.94;35.96